createdAt,value
2019-03-20T00:01:48.139Z,101062.38
2019-03-20T00:04:19.970Z,101062.38
2019-03-20T00:06:50.484Z,101052.86
2019-03-20T00:09:23.075Z,101055.94
2019-03-20T00:11:53.818Z,101058.64
2019-03-20T00:14:24.863Z,101060.70
2019-03-20T00:16:55.518Z,101060.70
2019-03-20T00:19:25.917Z,101065.17
2019-03-20T00:21:56.509Z,101070.00
2019-03-20T00:24:27.214Z,101071.19
2019-03-20T00:26:58.042Z,101071.19
2019-03-20T00:29:28.517Z,101059.14
2019-03-20T00:31:59.084Z,101068.88
2019-03-20T00:34:29.932Z,101076.23
2019-03-20T00:37:00.584Z,101076.23
2019-03-20T00:39:31.315Z,101075.16
2019-03-20T00:42:01.886Z,101064.20
2019-03-20T00:44:32.764Z,101066.88
2019-03-20T00:47:03.513Z,101067.83
2019-03-20T00:49:34.190Z,101067.83
2019-03-20T00:52:04.888Z,101060.87
2019-03-20T00:54:35.532Z,101056.39
2019-03-20T00:57:06.578Z,101053.04
2019-03-20T00:59:37.414Z,101045.60
2019-03-20T01:02:08.877Z,101045.60
2019-03-20T01:04:39.390Z,101056.39
2019-03-20T01:07:11.289Z,101056.80
2019-03-20T01:09:42.933Z,101061.84
2019-03-20T01:12:17.664Z,101061.84
2019-03-20T01:14:47.784Z,101061.55
2019-03-20T01:17:18.500Z,101062.82
2019-03-20T01:19:49.189Z,101062.82
2019-03-20T01:22:20.348Z,101058.69
2019-03-20T01:24:51.296Z,101070.81
2019-03-20T01:27:22.563Z,101064.08
2019-03-20T01:29:53.328Z,101064.08
2019-03-20T01:32:23.994Z,101068.10
2019-03-20T01:34:55.447Z,101068.10
2019-03-20T01:37:26.193Z,101061.59
2019-03-20T01:39:56.705Z,101061.59
2019-03-20T01:42:27.109Z,101085.69
2019-03-20T01:44:57.851Z,101085.69
2019-03-20T01:47:28.285Z,101085.13
2019-03-20T01:49:59.038Z,101085.13
2019-03-20T01:52:29.991Z,101087.77
2019-03-20T01:55:00.758Z,101087.77
2019-03-20T01:57:31.258Z,101079.95
2019-03-20T02:00:02.217Z,101081.86
2019-03-20T02:02:33.012Z,101089.55
2019-03-20T02:05:03.589Z,101089.55
2019-03-20T02:07:34.284Z,101095.27
2019-03-20T02:10:05.512Z,101095.27
2019-03-20T02:12:37.624Z,101093.20
2019-03-20T02:15:10.677Z,101090.03
2019-03-20T02:17:41.228Z,101106.38
2019-03-20T02:20:13.831Z,101106.38
2019-03-20T02:22:44.610Z,101115.24
2019-03-20T02:25:16.171Z,101111.05
2019-03-20T02:27:46.942Z,101112.21
2019-03-20T02:30:18.144Z,101112.21
2019-03-20T02:32:48.899Z,101109.23
2019-03-20T02:35:19.713Z,101112.21
2019-03-20T02:37:51.493Z,101112.21
2019-03-20T02:40:21.994Z,101112.59
2019-03-20T02:42:52.668Z,101112.59
2019-03-20T02:45:23.395Z,101113.89
2019-03-20T02:47:53.914Z,101116.20
2019-03-20T02:50:24.582Z,101110.88
2019-03-20T02:52:54.991Z,101110.88
2019-03-20T02:55:25.517Z,101122.22
2019-03-20T02:57:56.299Z,101122.22
2019-03-20T03:00:26.680Z,101128.02
2019-03-20T03:02:57.262Z,101136.55
2019-03-20T03:05:27.873Z,101119.03
2019-03-20T03:07:58.553Z,101120.34
2019-03-20T03:10:29.167Z,101124.87
2019-03-20T03:13:00.312Z,101123.59
2019-03-20T03:15:30.895Z,101123.59
2019-03-20T03:18:01.740Z,101130.66
2019-03-20T03:20:32.456Z,101130.66
2019-03-20T03:23:03.114Z,101139.09
2019-03-20T03:25:33.714Z,101145.30
2019-03-20T03:28:04.511Z,101157.75
2019-03-20T03:30:35.259Z,101157.75
2019-03-20T03:33:07.239Z,101165.55
2019-03-20T03:35:37.985Z,101164.73
2019-03-20T03:38:08.640Z,101164.73
2019-03-20T03:40:39.553Z,101175.01
2019-03-20T03:43:11.492Z,101168.95
2019-03-20T03:45:42.915Z,101168.95
2019-03-20T03:48:13.693Z,101162.31
2019-03-20T03:50:48.087Z,101162.31
2019-03-20T03:53:16.660Z,101172.06
2019-03-20T03:58:35.848Z,101166.92
2019-03-20T04:01:06.897Z,101164.98
2019-03-20T04:03:37.699Z,101169.22
2019-03-20T04:06:08.640Z,101169.22
2019-03-20T04:08:40.445Z,101168.94
2019-03-20T04:11:11.097Z,101171.48
2019-03-20T04:13:41.954Z,101179.22
2019-03-20T04:16:12.602Z,101186.30
2019-03-20T04:18:43.089Z,101186.50
2019-03-20T04:21:14.014Z,101188.45
2019-03-20T04:24:37.569Z,101188.45
2019-03-20T04:27:08.783Z,101204.13
2019-03-20T04:29:40.007Z,101202.05
2019-03-20T04:32:10.695Z,101205.77
2019-03-20T04:34:41.721Z,101205.77
2019-03-20T04:37:12.504Z,101206.73
2019-03-20T04:39:44.643Z,101209.84
2019-03-20T04:42:15.660Z,101209.84
2019-03-20T04:44:46.232Z,101212.72
2019-03-20T04:47:17.398Z,101219.29
2019-03-20T04:49:48.168Z,101218.22
2019-03-20T04:52:18.619Z,101212.78
2019-03-20T04:54:49.405Z,101212.78
2019-03-20T04:57:20.114Z,101223.55
2019-03-20T04:59:50.722Z,101223.55
2019-03-20T05:02:22.385Z,101238.14
2019-03-20T05:04:53.263Z,101238.14
2019-03-20T05:07:23.948Z,101232.20
2019-03-20T05:09:54.496Z,101232.20
2019-03-20T05:12:25.154Z,101238.88
2019-03-20T05:14:55.893Z,101235.73
2019-03-20T05:17:28.420Z,101235.73
2019-03-20T05:19:59.133Z,101251.11
2019-03-20T05:22:29.866Z,101259.05
2019-03-20T05:25:00.700Z,101259.05
2019-03-20T05:27:31.478Z,101250.87
2019-03-20T05:30:01.918Z,101250.87
2019-03-20T05:32:32.354Z,101263.58
2019-03-20T05:35:03.384Z,101273.71
2019-03-20T05:37:34.477Z,101273.87
2019-03-20T05:40:05.549Z,101276.34
2019-03-20T05:42:36.452Z,101276.34
2019-03-20T05:45:09.006Z,101275.30
2019-03-20T05:47:39.715Z,101282.61
2019-03-20T05:50:11.179Z,101279.87
2019-03-20T05:52:42.099Z,101279.87
2019-03-20T05:55:12.934Z,101288.19
2019-03-20T06:00:21.416Z,101294.39
2019-03-20T06:02:52.011Z,101295.96
2019-03-20T06:05:22.567Z,101300.53
2019-03-20T06:07:53.360Z,101307.77
2019-03-20T06:10:25.960Z,101311.21
2019-03-20T06:12:56.598Z,101311.21
2019-03-20T06:15:27.317Z,101319.90
2019-03-20T06:17:58.007Z,101316.26
2019-03-20T06:20:28.543Z,101330.67
2019-03-20T06:22:59.338Z,101330.67
2019-03-20T06:25:30.150Z,101336.95
2019-03-20T06:28:01.001Z,101351.53
2019-03-20T06:30:31.971Z,101351.53
2019-03-20T06:33:02.589Z,101358.77
2019-03-20T06:35:33.167Z,101361.44
2019-03-20T06:38:04.039Z,101366.07
2019-03-20T06:40:34.831Z,101366.07
2019-03-20T06:43:05.674Z,101359.41
2019-03-20T06:45:37.137Z,101368.22
2019-03-20T06:48:07.766Z,101368.22
2019-03-20T06:50:38.956Z,101375.76
2019-03-20T06:53:09.730Z,101374.07
2019-03-20T06:55:40.290Z,101372.53
2019-03-20T06:58:10.899Z,101374.78
2019-03-20T07:01:05.763Z,101380.95
2019-03-20T07:04:13.048Z,101373.72
2019-03-20T07:06:57.560Z,101374.15
2019-03-20T07:10:04.457Z,101384.01
2019-03-20T07:12:36.141Z,101382.48
2019-03-20T07:15:07.202Z,101392.71
2019-03-20T07:17:37.643Z,101384.28
2019-03-20T07:20:08.834Z,101395.09
2019-03-20T07:22:39.311Z,101409.16
2019-03-20T07:25:09.786Z,101402.01
2019-03-20T07:27:40.363Z,101403.23
2019-03-20T07:30:11.942Z,101399.32
2019-03-20T07:32:42.531Z,101398.55
2019-03-20T07:35:13.394Z,101397.03
2019-03-20T07:37:55.338Z,101397.89
2019-03-20T07:40:17.427Z,101393.69
2019-03-20T07:42:48.110Z,101396.06
2019-03-20T07:45:18.870Z,101396.16
2019-03-20T07:47:49.462Z,101407.41
2019-03-20T07:50:19.936Z,101408.31
2019-03-20T07:52:50.326Z,101401.81
2019-03-20T07:55:21.039Z,101402.82
2019-03-20T07:57:52.513Z,101410.57
2019-03-20T08:00:23.246Z,101404.25
2019-03-20T08:02:53.937Z,101406.51
2019-03-20T08:05:29.112Z,101398.66
2019-03-20T08:08:06.759Z,101418.06
2019-03-20T08:10:29.612Z,101413.56
2019-03-20T08:13:00.379Z,101419.41
2019-03-20T08:15:31.902Z,101407.38
2019-03-20T08:18:02.448Z,101410.69
2019-03-20T08:20:34.295Z,101405.84
2019-03-20T08:23:04.989Z,101401.05
2019-03-20T08:25:35.575Z,101407.36
2019-03-20T08:28:06.511Z,101404.94
2019-03-20T08:30:37.151Z,101413.74
2019-03-20T08:33:07.875Z,101417.34
2019-03-20T08:35:38.561Z,101418.74
2019-03-20T08:38:17.809Z,101424.44
2019-03-20T08:40:41.908Z,101426.33
2019-03-20T08:43:12.352Z,101427.61
2019-03-20T08:45:42.762Z,101427.23
2019-03-20T08:48:13.770Z,101432.74
2019-03-20T08:50:44.422Z,101425.34
2019-03-20T08:53:15.240Z,101428.19
2019-03-20T08:55:46.062Z,101428.72
2019-03-20T08:58:16.789Z,101439.81
2019-03-20T09:00:48.075Z,101438.77
2019-03-20T09:03:19.101Z,101442.15
2019-03-20T09:05:49.882Z,101437.41
2019-03-20T09:08:28.960Z,101432.90
2019-03-20T09:10:52.641Z,101433.00
2019-03-20T09:13:23.527Z,101438.42
2019-03-20T09:15:56.129Z,101435.80
2019-03-20T09:18:26.807Z,101441.49
2019-03-20T09:21:03.783Z,101448.81
2019-03-20T09:23:34.438Z,101443.20
2019-03-20T09:26:05.837Z,101443.16
2019-03-20T09:28:36.523Z,101441.95
2019-03-20T09:31:07.382Z,101442.13
2019-03-20T09:33:37.820Z,101451.07
2019-03-20T09:36:08.444Z,101451.01
2019-03-20T09:38:43.332Z,101455.05
2019-03-20T09:41:10.993Z,101451.73
2019-03-20T09:43:41.789Z,101455.14
2019-03-20T09:46:12.323Z,101458.43
2019-03-20T09:48:42.869Z,101459.31
2019-03-20T09:51:13.473Z,101469.48
2019-03-20T09:53:44.115Z,101461.09
2019-03-20T09:56:14.391Z,101464.21
2019-03-20T09:58:45.052Z,101464.58
2019-03-20T10:01:16.321Z,101467.49
2019-03-20T10:03:46.954Z,101471.34
2019-03-20T10:06:17.580Z,101467.59
2019-03-20T10:08:54.073Z,101478.09
2019-03-20T10:11:20.302Z,101481.08
2019-03-20T10:13:53.953Z,101491.59
2019-03-20T10:16:25.609Z,101485.84
2019-03-20T10:18:56.333Z,101495.22
2019-03-20T10:21:27.119Z,101495.66
2019-03-20T10:24:01.477Z,101495.72
2019-03-20T10:26:32.385Z,101495.89
2019-03-20T10:29:05.060Z,101499.11
2019-03-20T10:31:35.740Z,101495.19
2019-03-20T10:34:06.223Z,101497.63
2019-03-20T10:36:37.303Z,101498.73
2019-03-20T10:39:10.305Z,101502.47
2019-03-20T10:41:41.680Z,101500.42
2019-03-20T10:44:12.184Z,101499.78
2019-03-20T10:46:42.819Z,101500.58
2019-03-20T10:49:13.728Z,101499.83
2019-03-20T10:51:43.976Z,101506.67
2019-03-20T10:54:16.584Z,101501.11
2019-03-20T10:56:48.058Z,101505.80
2019-03-20T10:59:18.978Z,101501.14
2019-03-20T11:01:49.526Z,101496.63
2019-03-20T11:04:20.051Z,101503.52
2019-03-20T11:06:50.559Z,101500.95
2019-03-20T11:09:21.257Z,101493.69
2019-03-20T11:12:01.400Z,101502.02
2019-03-20T11:14:32.160Z,101498.03
2019-03-20T11:17:02.892Z,101489.97
2019-03-20T11:19:33.405Z,101501.55
2019-03-20T11:22:04.153Z,101500.08
2019-03-20T11:24:34.403Z,101498.03
2019-03-20T11:27:05.026Z,101497.97
2019-03-20T11:29:35.714Z,101500.71
2019-03-20T11:32:06.567Z,101498.37
2019-03-20T11:34:36.925Z,101504.87
2019-03-20T11:37:07.702Z,101506.73
2019-03-20T11:39:38.235Z,101510.54
2019-03-20T11:42:08.832Z,101507.11
2019-03-20T11:44:39.525Z,101504.67
2019-03-20T11:47:10.199Z,101503.33
2019-03-20T11:49:40.652Z,101507.34
2019-03-20T11:52:11.346Z,101505.30
2019-03-20T11:54:41.912Z,101502.42
2019-03-20T11:57:13.910Z,101494.55
2019-03-20T11:59:44.707Z,101495.61
2019-03-20T12:02:15.633Z,101496.91
2019-03-20T12:04:46.264Z,101497.36
2019-03-20T12:07:16.849Z,101503.91
2019-03-20T12:09:47.658Z,101495.44
2019-03-20T12:12:18.126Z,101502.02
2019-03-20T12:14:49.252Z,101500.08
2019-03-20T12:17:20.366Z,101502.80
2019-03-20T12:19:51.331Z,101500.48
2019-03-20T12:22:21.882Z,101508.66
2019-03-20T12:24:52.286Z,101509.39
2019-03-20T12:27:23.966Z,101509.93
2019-03-20T12:29:54.630Z,101506.35
2019-03-20T12:32:25.416Z,101515.40
2019-03-20T12:34:56.176Z,101510.50
2019-03-20T12:37:26.828Z,101513.30
2019-03-20T12:39:57.986Z,101517.70
2019-03-20T12:42:29.589Z,101522.97
2019-03-20T12:45:00.539Z,101521.14
2019-03-20T12:47:31.153Z,101521.20
2019-03-20T12:50:01.830Z,101518.55
2019-03-20T12:52:32.390Z,101523.16
2019-03-20T12:55:02.899Z,101523.17
2019-03-20T12:57:33.309Z,101517.25
2019-03-20T13:00:04.056Z,101522.82
2019-03-20T13:02:34.605Z,101527.31
2019-03-20T13:05:05.998Z,101522.08
2019-03-20T13:07:36.865Z,101522.78
2019-03-20T13:10:08.221Z,101522.61
2019-03-20T13:12:39.820Z,101515.39
2019-03-20T13:15:12.461Z,101517.84
2019-03-20T13:17:43.269Z,101522.24
2019-03-20T13:20:15.326Z,101515.70
2019-03-20T13:22:46.298Z,101529.34
2019-03-20T13:25:17.739Z,101517.60
2019-03-20T13:27:48.233Z,101522.95
2019-03-20T13:30:31.683Z,101517.51
2019-03-20T13:33:02.917Z,101520.18
2019-03-20T13:35:33.996Z,101514.48
2019-03-20T13:38:04.634Z,101524.86
2019-03-20T13:40:34.997Z,101521.78
2019-03-20T13:43:05.911Z,101527.19
2019-03-20T13:45:37.175Z,101531.69
2019-03-20T13:48:07.856Z,101528.37
2019-03-20T13:50:38.373Z,101522.55
2019-03-20T13:53:09.125Z,101524.32
2019-03-20T13:55:39.744Z,101524.05
2019-03-20T13:58:10.185Z,101521.11
2019-03-20T14:00:40.891Z,101519.97
2019-03-20T14:03:11.797Z,101527.89
2019-03-20T14:05:43.630Z,101525.97
2019-03-20T14:08:14.322Z,101524.66
2019-03-20T14:10:50.277Z,101525.03
2019-03-20T14:13:16.832Z,101523.96
2019-03-20T14:15:48.484Z,101527.19
2019-03-20T14:18:20.828Z,101528.48
2019-03-20T14:20:52.660Z,101523.95
2019-03-20T14:23:23.258Z,101528.33
2019-03-20T14:25:54.244Z,101531.54
2019-03-20T14:28:24.919Z,101533.80
2019-03-20T14:30:55.321Z,101533.34
2019-03-20T14:33:25.755Z,101539.88
2019-03-20T14:35:56.207Z,101536.29
2019-03-20T14:38:27.597Z,101548.05
2019-03-20T14:40:58.308Z,101539.98
2019-03-20T14:43:28.814Z,101537.14
2019-03-20T14:45:59.417Z,101541.36
2019-03-20T14:48:30.142Z,101539.05
2019-03-20T14:51:00.945Z,101544.00
2019-03-20T14:53:31.865Z,101547.41
2019-03-20T14:56:02.600Z,101544.88
2019-03-20T14:58:35.330Z,101540.03
2019-03-20T15:01:06.180Z,101544.24
2019-03-20T15:03:37.774Z,101545.87
2019-03-20T15:06:08.579Z,101550.92
2019-03-20T15:08:39.267Z,101549.84
2019-03-20T15:11:09.958Z,101554.91
2019-03-20T15:13:40.901Z,101559.02
2019-03-20T15:16:14.725Z,101561.17
2019-03-20T15:18:45.359Z,101563.05
2019-03-20T15:21:16.082Z,101567.26
2019-03-20T15:23:46.714Z,101564.65
2019-03-20T15:26:18.698Z,101545.51
2019-03-20T15:28:48.938Z,101561.78
2019-03-20T15:31:19.318Z,101564.09
2019-03-20T15:33:49.995Z,101566.03
2019-03-20T15:36:20.697Z,101568.97
2019-03-20T15:38:51.393Z,101576.83
2019-03-20T15:41:22.284Z,101576.16
2019-03-20T15:44:02.164Z,101583.19
2019-03-20T15:46:25.833Z,101583.82
2019-03-20T15:48:56.407Z,101580.54
2019-03-20T15:51:28.164Z,101580.80
2019-03-20T15:53:58.857Z,101579.23
2019-03-20T15:56:30.809Z,101582.22
2019-03-20T15:59:01.971Z,101573.72
2019-03-20T16:01:32.339Z,101580.16
2019-03-20T16:04:02.781Z,101581.73
2019-03-20T16:06:33.435Z,101585.45
2019-03-20T16:09:05.391Z,101592.84
2019-03-20T16:11:36.173Z,101600.48
2019-03-20T16:14:06.941Z,101602.52
2019-03-20T16:16:37.623Z,101605.98
2019-03-20T16:19:11.718Z,101607.16
2019-03-20T16:21:44.707Z,101615.50
2019-03-20T16:24:20.357Z,101623.61
2019-03-20T16:26:51.118Z,101626.21
2019-03-20T16:29:21.476Z,101631.70
2019-03-20T16:31:52.649Z,101631.36
2019-03-20T16:34:24.392Z,101633.66
2019-03-20T16:36:55.272Z,101633.77
2019-03-20T16:39:25.817Z,101638.59
2019-03-20T16:41:56.395Z,101645.52
2019-03-20T16:44:26.738Z,101653.92
2019-03-20T16:46:57.489Z,101654.47
2019-03-20T16:49:27.975Z,101645.02
2019-03-20T16:51:58.432Z,101658.50
2019-03-20T16:54:28.995Z,101658.50
2019-03-20T16:57:01.362Z,101647.95
2019-03-20T16:59:32.185Z,101664.30
2019-03-20T17:02:02.763Z,101662.61
2019-03-20T17:04:33.899Z,101669.12
2019-03-20T17:07:05.813Z,101669.12
2019-03-20T17:09:36.526Z,101679.23
2019-03-20T17:12:07.219Z,101686.83
2019-03-20T17:14:38.002Z,101678.14
2019-03-20T17:17:09.955Z,101682.98
2019-03-20T17:19:40.500Z,101671.21
2019-03-20T17:22:14.683Z,101685.80
2019-03-20T17:24:45.056Z,101689.16
2019-03-20T17:27:15.379Z,101689.16
2019-03-20T17:29:45.863Z,101683.83
2019-03-20T17:32:19.234Z,101682.81
2019-03-20T17:34:50.757Z,101687.53
2019-03-20T17:37:21.027Z,101687.53
2019-03-20T17:39:51.463Z,101687.23
2019-03-20T17:42:22.140Z,101689.16
2019-03-20T17:44:52.647Z,101689.16
2019-03-20T17:47:23.314Z,101691.02
2019-03-20T17:49:54.299Z,101704.05
2019-03-20T17:52:25.025Z,101699.32
2019-03-20T17:54:55.744Z,101715.71
2019-03-20T17:57:26.626Z,101717.70
2019-03-20T17:59:57.010Z,101724.38
2019-03-20T18:02:27.603Z,101725.06
2019-03-20T18:04:58.074Z,101726.73
2019-03-20T18:07:29.138Z,101725.78
2019-03-20T18:10:00.373Z,101729.52
2019-03-20T18:12:31.161Z,101742.42
2019-03-20T18:15:01.678Z,101742.42
2019-03-20T18:17:32.330Z,101745.71
2019-03-20T18:20:05.838Z,101746.13
2019-03-20T18:22:37.451Z,101741.80
2019-03-20T18:25:08.903Z,101745.38
2019-03-20T18:27:39.912Z,101750.08
2019-03-20T18:30:27.073Z,101757.89
2019-03-20T18:32:57.694Z,101759.58
2019-03-20T18:35:28.447Z,101759.58
2019-03-20T18:37:58.999Z,101768.19
2019-03-20T18:40:29.409Z,101770.52
2019-03-20T18:43:00.078Z,101777.09
2019-03-20T18:45:31.151Z,101781.44
2019-03-20T18:48:01.839Z,101777.33
2019-03-20T18:50:32.655Z,101772.62
2019-03-20T18:53:03.347Z,101772.62
2019-03-20T18:55:34.067Z,101786.83
2019-03-20T18:58:05.069Z,101786.50
2019-03-20T19:00:36.093Z,101786.50
2019-03-20T19:03:07.804Z,101789.43
2019-03-20T19:06:14.349Z,101791.53
2019-03-20T19:08:44.579Z,101791.53
2019-03-20T19:11:18.731Z,101787.27
2019-03-20T19:13:49.372Z,101789.66
2019-03-20T19:16:20.430Z,101789.66
2019-03-20T19:18:52.582Z,101789.55
2019-03-20T19:21:23.468Z,101795.08
2019-03-20T19:23:55.739Z,101796.55
2019-03-20T19:26:26.454Z,101797.55
2019-03-20T19:28:57.198Z,101797.55
2019-03-20T19:31:29.202Z,101815.78
2019-03-20T19:34:01.571Z,101815.78
2019-03-20T19:36:36.976Z,101815.09
2019-03-20T19:39:09.647Z,101815.09
2019-03-20T19:41:40.774Z,101812.48
2019-03-20T19:44:13.748Z,101819.92
2019-03-20T19:46:44.483Z,101819.92
2019-03-20T19:49:15.302Z,101822.64
2019-03-20T19:51:46.098Z,101821.72
2019-03-20T19:54:17.215Z,101826.84
2019-03-20T19:56:50.008Z,101830.72
2019-03-20T19:59:22.456Z,101826.94
2019-03-20T20:01:53.131Z,101827.86
2019-03-20T20:04:23.744Z,101830.41
2019-03-20T20:06:55.824Z,101830.38
2019-03-20T20:09:26.521Z,101834.42
2019-03-20T20:11:58.559Z,101839.77
2019-03-20T20:14:29.318Z,101835.86
2019-03-20T20:17:00.359Z,101829.94
2019-03-20T20:19:33.802Z,101830.28
2019-03-20T20:22:05.335Z,101825.86
2019-03-20T20:24:37.115Z,101835.53
2019-03-20T20:27:09.323Z,101829.45
2019-03-20T20:29:40.164Z,101821.56
2019-03-20T20:32:11.454Z,101843.67
2019-03-20T20:34:42.404Z,101820.59
2019-03-20T20:37:13.019Z,101821.97
2019-03-20T20:39:43.790Z,101823.59
2019-03-20T20:42:14.492Z,101833.23
2019-03-20T20:44:45.733Z,101832.72
2019-03-20T20:47:17.864Z,101833.01
2019-03-20T20:49:48.716Z,101844.69
2019-03-20T20:52:19.899Z,101837.17
2019-03-20T20:54:53.187Z,101834.50
2019-03-20T20:57:25.081Z,101836.73
2019-03-20T20:59:56.131Z,101837.32
2019-03-20T21:02:26.871Z,101840.31
2019-03-20T21:05:00.548Z,101843.47
2019-03-20T21:07:31.276Z,101840.89
2019-03-20T21:10:01.994Z,101847.09
2019-03-20T21:12:32.731Z,101847.30
2019-03-20T21:15:07.195Z,101850.73
2019-03-20T21:18:40.057Z,101845.92
2019-03-20T21:21:11.632Z,101848.13
2019-03-20T21:24:18.305Z,101853.02
2019-03-20T21:27:46.566Z,101851.72
2019-03-20T21:30:47.277Z,101858.05
2019-03-20T21:33:43.024Z,101861.65
2019-03-20T21:37:01.010Z,101861.58
2019-03-20T21:39:33.427Z,101867.98
2019-03-20T21:42:36.448Z,101868.77
2019-03-20T21:45:28.272Z,101868.11
2019-03-20T21:48:00.488Z,101868.48
2019-03-20T21:51:13.693Z,101869.80
2019-03-20T21:54:24.776Z,101873.84
2019-03-20T21:57:36.005Z,101876.83
2019-03-20T22:00:36.500Z,101879.70
2019-03-20T22:03:07.931Z,101880.75
2019-03-20T22:06:15.127Z,101903.20
2019-03-20T22:08:46.684Z,101892.33
2019-03-20T22:11:52.551Z,101893.28
2019-03-20T22:14:25.005Z,101896.43
2019-03-20T22:17:49.869Z,101888.76
2019-03-20T22:20:34.240Z,101885.39
2019-03-20T22:23:22.652Z,101896.95
2019-03-20T22:26:27.981Z,101875.55
2019-03-20T22:29:27.440Z,101879.47
2019-03-20T22:32:34.068Z,101893.69
2019-03-20T22:35:31.297Z,101894.01
2019-03-20T22:38:02.954Z,101894.01
2019-03-20T22:41:22.743Z,101891.80
2019-03-20T22:44:03.555Z,101891.80
2019-03-20T22:47:11.444Z,101894.46
2019-03-20T22:50:15.957Z,101899.00
2019-03-20T22:53:09.204Z,101906.02
2019-03-20T22:56:19.547Z,101906.02
2019-03-20T22:58:51.848Z,101912.35
2019-03-20T23:01:45.880Z,101912.35
2019-03-20T23:04:24.453Z,101908.44
2019-03-20T23:06:55.887Z,101917.56
2019-03-20T23:09:26.793Z,101907.38
2019-03-20T23:11:59.076Z,101909.48
2019-03-20T23:14:30.867Z,101917.05
2019-03-20T23:17:01.825Z,101918.09
2019-03-20T23:19:34.011Z,101915.98
2019-03-20T23:22:05.377Z,101922.20
2019-03-20T23:24:36.267Z,101922.20
2019-03-20T23:27:11.252Z,101925.36
2019-03-20T23:29:42.292Z,101907.30
2019-03-20T23:32:14.435Z,101916.77
2019-03-20T23:34:45.578Z,101916.77
2019-03-20T23:37:17.211Z,101918.25
2019-03-20T23:39:49.383Z,101919.02
2019-03-20T23:42:20.945Z,101908.19
2019-03-20T23:44:52.128Z,101925.81
2019-03-20T23:47:31.192Z,101917.85
2019-03-20T23:50:03.227Z,101920.69
2019-03-20T23:52:34.132Z,101932.28
2019-03-20T23:55:07.015Z,101932.28
2019-03-20T23:57:37.967Z,101932.08
